createdAt,value
2018-07-25T00:01:43.631Z,51.49
2018-07-25T00:04:14.300Z,51.28
2018-07-25T00:06:44.946Z,51.21
2018-07-25T00:09:15.647Z,51.04
2018-07-25T00:11:46.330Z,51.84
2018-07-25T00:14:16.991Z,51.43
2018-07-25T00:16:47.723Z,52.11
2018-07-25T00:19:18.427Z,51.65
2018-07-25T00:21:49.134Z,51.86
2018-07-25T00:24:19.852Z,52.08
2018-07-25T00:26:50.623Z,52.32
2018-07-25T00:29:21.694Z,52.32
2018-07-25T00:31:52.411Z,52.74
2018-07-25T00:34:23.042Z,52.75
2018-07-25T00:36:53.709Z,52.98
2018-07-25T00:39:24.390Z,53.16
2018-07-25T00:41:55.185Z,53.37
2018-07-25T00:44:25.937Z,53.61
2018-07-25T00:46:56.682Z,54.00
2018-07-25T00:49:27.382Z,54.21
2018-07-25T00:51:58.039Z,54.33
2018-07-25T00:54:28.818Z,54.32
2018-07-25T00:56:59.522Z,54.60
2018-07-25T00:59:30.255Z,54.68
2018-07-25T01:02:00.916Z,54.54
2018-07-25T01:04:31.738Z,55.50
2018-07-25T01:07:02.476Z,55.10
2018-07-25T01:09:33.151Z,54.86
2018-07-25T01:12:03.977Z,55.18
2018-07-25T01:14:34.700Z,54.99
2018-07-25T01:17:05.504Z,55.20
2018-07-25T01:19:36.211Z,55.48
2018-07-25T01:22:06.941Z,55.64
2018-07-25T01:24:37.640Z,56.16
2018-07-25T01:27:08.608Z,56.21
2018-07-25T01:29:39.287Z,56.51
2018-07-25T01:32:09.987Z,56.77
2018-07-25T01:34:40.668Z,57.14
2018-07-25T01:37:11.591Z,57.39
2018-07-25T01:39:42.287Z,57.46
2018-07-25T01:42:12.999Z,57.47
2018-07-25T01:44:43.685Z,57.56
2018-07-25T01:47:14.380Z,57.75
2018-07-25T01:49:45.093Z,58.20
2018-07-25T01:52:15.809Z,58.30
2018-07-25T01:54:46.444Z,58.79
2018-07-25T01:57:17.136Z,58.26
2018-07-25T01:59:47.869Z,58.83
2018-07-25T02:02:18.514Z,59.07
2018-07-25T02:04:49.142Z,59.22
2018-07-25T02:07:19.897Z,59.39
2018-07-25T02:09:50.513Z,59.53
2018-07-25T02:12:21.202Z,59.86
2018-07-25T02:14:51.960Z,59.84
2018-07-25T02:17:22.662Z,59.87
2018-07-25T02:19:53.314Z,60.44
2018-07-25T02:22:24.039Z,60.68
2018-07-25T02:24:54.728Z,60.70
2018-07-25T02:27:25.447Z,60.49
2018-07-25T02:29:56.126Z,60.96
2018-07-25T02:32:26.808Z,61.51
2018-07-25T02:34:57.484Z,61.43
2018-07-25T02:37:28.168Z,61.41
2018-07-25T02:39:58.919Z,61.97
2018-07-25T02:42:29.656Z,62.01
2018-07-25T02:45:00.337Z,62.00
2018-07-25T02:47:31.068Z,62.28
2018-07-25T02:50:01.743Z,62.33
2018-07-25T02:52:32.549Z,62.53
2018-07-25T02:55:03.249Z,62.42
2018-07-25T02:57:33.887Z,62.58
2018-07-25T03:00:05.691Z,62.62
2018-07-25T03:02:36.444Z,62.69
2018-07-25T03:05:07.588Z,62.58
2018-07-25T03:07:38.226Z,62.92
2018-07-25T03:10:09.002Z,63.08
2018-07-25T03:12:39.767Z,63.43
2018-07-25T03:15:10.479Z,63.33
2018-07-25T03:17:41.132Z,63.86
2018-07-25T03:20:11.839Z,63.68
2018-07-25T03:22:42.672Z,63.77
2018-07-25T03:25:13.351Z,63.82
2018-07-25T03:27:44.038Z,64.17
2018-07-25T03:30:14.794Z,64.59
2018-07-25T03:32:45.498Z,64.18
2018-07-25T03:35:16.197Z,64.01
2018-07-25T03:37:46.899Z,64.49
2018-07-25T03:40:17.604Z,64.47
2018-07-25T03:42:48.296Z,64.85
2018-07-25T03:45:19.037Z,65.25
2018-07-25T03:47:49.766Z,65.12
2018-07-25T03:50:20.482Z,64.99
2018-07-25T03:52:51.172Z,65.37
2018-07-25T03:55:21.953Z,65.24
2018-07-25T03:57:52.627Z,65.24
2018-07-25T04:00:23.374Z,65.13
2018-07-25T04:02:54.039Z,65.32
2018-07-25T04:05:24.736Z,65.61
2018-07-25T04:07:55.457Z,65.44
2018-07-25T04:10:26.210Z,65.56
2018-07-25T04:12:56.965Z,65.49
2018-07-25T04:15:27.611Z,65.91
2018-07-25T04:17:58.325Z,65.87
2018-07-25T04:20:28.995Z,65.62
2018-07-25T04:22:59.675Z,65.23
2018-07-25T04:25:30.571Z,65.76
2018-07-25T04:28:01.243Z,65.55
2018-07-25T04:30:32.026Z,65.82
2018-07-25T04:33:03.073Z,65.78
2018-07-25T04:35:39.467Z,65.48
2018-07-25T04:38:10.183Z,65.38
2018-07-25T04:40:40.949Z,65.14
2018-07-25T04:43:11.727Z,65.17
2018-07-25T04:45:42.462Z,64.55
2018-07-25T04:48:13.150Z,64.56
2018-07-25T04:50:43.905Z,64.05
2018-07-25T04:53:14.617Z,63.84
2018-07-25T04:55:45.340Z,63.75
2018-07-25T04:58:16.065Z,63.11
2018-07-25T05:00:46.748Z,62.88
2018-07-25T05:03:17.413Z,62.78
2018-07-25T05:08:17.219Z,62.09
2018-07-25T05:10:47.818Z,62.24
2018-07-25T05:13:18.500Z,62.00
2018-07-25T05:15:49.329Z,61.79
2018-07-25T05:18:20.031Z,61.69
2018-07-25T05:20:50.790Z,61.53
2018-07-25T05:23:21.482Z,61.02
2018-07-25T05:25:52.147Z,60.45
2018-07-25T05:28:22.855Z,60.44
2018-07-25T05:30:53.590Z,60.28
2018-07-25T05:33:24.318Z,60.21
2018-07-25T05:35:54.995Z,60.16
2018-07-25T05:38:25.693Z,59.79
2018-07-25T05:43:57.885Z,59.96
2018-07-25T05:46:28.511Z,59.92
2018-07-25T05:48:59.241Z,59.59
2018-07-25T05:51:29.917Z,59.39
2018-07-25T05:54:00.650Z,58.76
2018-07-25T05:56:31.455Z,58.42
2018-07-25T05:59:02.187Z,58.14
2018-07-25T06:01:32.830Z,58.19
2018-07-25T06:04:03.652Z,57.65
2018-07-25T06:06:34.410Z,57.74
2018-07-25T06:09:08.183Z,57.38
2018-07-25T06:11:39.366Z,57.31
2018-07-25T06:14:10.095Z,57.03
2018-07-25T06:16:40.808Z,56.80
2018-07-25T06:19:11.513Z,56.91
2018-07-25T06:21:42.215Z,56.52
2018-07-25T06:24:13.004Z,56.36
2018-07-25T06:26:43.685Z,56.41
2018-07-25T06:29:14.370Z,56.34
2018-07-25T06:31:45.053Z,56.61
2018-07-25T06:34:15.735Z,56.49
2018-07-25T06:36:46.360Z,55.79
2018-07-25T06:39:17.034Z,55.84
2018-07-25T06:41:47.704Z,55.05
2018-07-25T06:44:18.367Z,54.91
2018-07-25T06:46:49.030Z,54.43
2018-07-25T06:49:19.339Z,54.10
2018-07-25T06:51:49.892Z,53.41
2018-07-25T06:54:20.539Z,52.73
2018-07-25T06:56:51.262Z,51.82
2018-07-25T06:59:21.940Z,51.95
2018-07-25T07:01:52.556Z,51.56
2018-07-25T07:04:23.243Z,50.58
2018-07-25T07:06:53.886Z,50.10
2018-07-25T07:09:24.554Z,49.90
2018-07-25T07:11:55.173Z,49.24
2018-07-25T07:14:25.858Z,49.92
2018-07-25T07:16:56.475Z,49.75
2018-07-25T07:19:27.157Z,48.62
2018-07-25T07:21:57.962Z,48.68
2018-07-25T07:24:28.594Z,48.54
2018-07-25T07:26:59.224Z,47.72
2018-07-25T07:29:29.901Z,47.73
2018-07-25T07:32:00.568Z,46.41
2018-07-25T07:34:31.239Z,46.73
2018-07-25T07:37:02.279Z,45.99
2018-07-25T07:39:32.913Z,45.88
2018-07-25T07:42:03.635Z,46.17
2018-07-25T07:44:34.286Z,44.30
2018-07-25T07:47:05.039Z,44.43
2018-07-25T07:49:35.686Z,43.79
2018-07-25T07:52:06.488Z,43.61
2018-07-25T07:54:37.198Z,43.23
2018-07-25T07:57:07.879Z,41.64
2018-07-25T07:59:38.606Z,41.34
2018-07-25T08:02:09.432Z,41.32
2018-07-25T08:04:40.056Z,39.75
2018-07-25T08:07:10.797Z,39.00
2018-07-25T08:09:41.458Z,38.70
2018-07-25T08:12:12.147Z,38.49
2018-07-25T08:14:42.827Z,38.24
2018-07-25T08:17:13.507Z,37.78
2018-07-25T08:19:44.239Z,36.92
2018-07-25T08:22:14.855Z,36.65
2018-07-25T08:24:45.484Z,36.30
2018-07-25T08:27:16.188Z,36.46
2018-07-25T08:30:17.413Z,34.92
2018-07-25T08:32:48.066Z,35.66
2018-07-25T08:35:18.709Z,34.78
2018-07-25T08:37:49.356Z,35.55
2018-07-25T08:40:20.080Z,34.16
2018-07-25T08:42:50.785Z,35.37
2018-07-25T08:45:21.403Z,34.00
2018-07-25T08:47:52.068Z,34.79
2018-07-25T08:50:22.736Z,33.21
2018-07-25T08:52:53.493Z,32.59
2018-07-25T08:55:24.072Z,33.59
2018-07-25T08:57:54.783Z,33.89
2018-07-25T09:00:25.503Z,34.18
2018-07-25T09:02:56.153Z,33.39
2018-07-25T09:05:26.770Z,36.37
2018-07-25T09:07:57.430Z,33.39
2018-07-25T09:10:28.091Z,32.81
2018-07-25T09:12:58.753Z,32.14
2018-07-25T09:15:29.360Z,30.98
2018-07-25T09:18:00.043Z,30.73
2018-07-25T09:20:30.732Z,30.71
2018-07-25T09:23:01.420Z,29.90
2018-07-25T09:25:32.532Z,29.56
2018-07-25T09:28:03.233Z,32.10
2018-07-25T09:30:33.945Z,30.59
2018-07-25T09:33:04.652Z,29.57
2018-07-25T09:35:35.333Z,29.20
2018-07-25T09:38:06.059Z,28.58
2018-07-25T09:40:36.714Z,28.61
2018-07-25T09:43:07.458Z,26.71
2018-07-25T09:45:38.127Z,27.67
2018-07-25T09:48:08.829Z,28.90
2018-07-25T09:50:39.545Z,27.90
2018-07-25T09:53:10.316Z,26.72
2018-07-25T09:55:40.930Z,26.83
2018-07-25T09:58:11.605Z,27.24
2018-07-25T10:00:50.282Z,26.10
2018-07-25T10:03:21.091Z,26.56
2018-07-25T10:05:51.786Z,26.07
2018-07-25T10:08:22.456Z,26.37
2018-07-25T10:10:53.180Z,26.45
2018-07-25T10:13:23.863Z,23.81
2018-07-25T10:15:54.584Z,23.54
2018-07-25T10:18:25.243Z,24.02
2018-07-25T10:20:56.009Z,24.40
2018-07-25T10:23:26.651Z,25.14
2018-07-25T10:25:57.295Z,22.85
2018-07-25T10:28:28.188Z,23.69
2018-07-25T10:30:58.887Z,23.12
2018-07-25T10:33:29.544Z,23.03
2018-07-25T10:36:00.187Z,22.43
2018-07-25T10:38:30.869Z,23.27
2018-07-25T10:41:01.532Z,22.35
2018-07-25T10:43:32.212Z,22.54
2018-07-25T10:46:02.853Z,22.32
2018-07-25T10:48:33.546Z,22.44
2018-07-25T10:51:04.210Z,21.38
2018-07-25T10:53:34.946Z,20.99
2018-07-25T10:56:05.607Z,21.14
2018-07-25T10:58:36.284Z,21.43
2018-07-25T11:01:13.653Z,21.47
2018-07-25T11:07:18.014Z,21.77
2018-07-25T11:09:48.795Z,20.82
2018-07-25T11:12:19.399Z,21.30
2018-07-25T11:14:50.085Z,20.90
2018-07-25T11:17:20.705Z,19.71
2018-07-25T11:19:51.499Z,19.89
2018-07-25T11:22:22.134Z,20.15
2018-07-25T11:24:52.863Z,19.04
2018-07-25T11:27:23.501Z,21.01
2018-07-25T11:29:54.166Z,18.81
2018-07-25T11:32:24.815Z,20.30
2018-07-25T11:34:55.529Z,20.02
2018-07-25T11:37:26.205Z,19.51
2018-07-25T11:39:56.876Z,19.41
2018-07-25T11:42:27.582Z,19.21
2018-07-25T11:44:58.233Z,18.70
2018-07-25T11:47:32.681Z,18.81
2018-07-25T11:50:03.553Z,20.87
2018-07-25T11:52:33.848Z,18.84
2018-07-25T11:55:04.623Z,17.58
2018-07-25T11:57:35.283Z,19.32
2018-07-25T12:00:06.531Z,20.11
2018-07-25T12:02:37.207Z,20.25
2018-07-25T12:05:08.026Z,19.22
2018-07-25T12:07:38.655Z,19.77
2018-07-25T12:10:09.480Z,21.25
2018-07-25T12:12:40.163Z,21.46
2018-07-25T12:15:11.119Z,21.48
2018-07-25T12:17:41.764Z,20.15
2018-07-25T12:20:12.443Z,18.79
2018-07-25T12:22:43.115Z,19.23
2018-07-25T12:25:13.864Z,17.17
2018-07-25T12:27:44.546Z,17.01
2018-07-25T12:30:15.228Z,17.41
2018-07-25T12:32:46.229Z,18.68
2018-07-25T12:35:16.915Z,20.01
2018-07-25T12:37:47.634Z,19.91
2018-07-25T12:40:18.310Z,21.22
2018-07-25T12:42:49.063Z,19.14
2018-07-25T12:45:19.730Z,20.62
2018-07-25T12:47:50.403Z,20.08
2018-07-25T12:50:21.100Z,20.66
2018-07-25T12:52:51.851Z,21.39
2018-07-25T12:55:22.547Z,21.45
2018-07-25T12:57:53.282Z,20.87
2018-07-25T13:00:24.008Z,21.59
2018-07-25T13:02:54.732Z,22.62
2018-07-25T13:05:25.384Z,22.22
2018-07-25T13:07:56.084Z,22.45
2018-07-25T13:10:26.820Z,23.02
2018-07-25T13:12:57.510Z,22.65
2018-07-25T13:15:28.211Z,22.81
2018-07-25T13:17:58.858Z,22.87
2018-07-25T13:20:29.558Z,22.72
2018-07-25T13:23:00.309Z,21.67
2018-07-25T13:25:30.987Z,22.02
2018-07-25T13:28:01.668Z,23.15
2018-07-25T13:30:32.673Z,23.77
2018-07-25T13:33:03.359Z,22.91
2018-07-25T13:35:34.047Z,22.62
2018-07-25T13:38:04.875Z,22.68
2018-07-25T13:40:35.710Z,22.23
2018-07-25T13:43:06.682Z,22.46
2018-07-25T13:45:37.428Z,21.92
2018-07-25T13:48:08.114Z,22.83
2018-07-25T13:50:38.823Z,23.51
2018-07-25T13:53:09.542Z,23.83
2018-07-25T13:55:40.287Z,24.08
2018-07-25T13:58:10.958Z,23.62
2018-07-25T14:00:41.615Z,24.63
2018-07-25T14:03:12.324Z,24.10
2018-07-25T14:05:42.987Z,23.87
2018-07-25T14:08:13.674Z,22.91
2018-07-25T14:10:44.378Z,23.92
2018-07-25T14:13:15.063Z,24.24
2018-07-25T14:15:45.734Z,24.11
2018-07-25T14:18:16.471Z,25.46
2018-07-25T14:20:47.958Z,25.46
2018-07-25T14:23:18.639Z,25.37
2018-07-25T14:25:49.456Z,25.64
2018-07-25T14:28:20.173Z,25.36
2018-07-25T14:30:50.914Z,26.24
2018-07-25T14:33:21.267Z,25.82
2018-07-25T14:35:51.855Z,26.93
2018-07-25T14:38:22.548Z,27.35
2018-07-25T14:50:19.011Z,28.35
2018-07-25T14:52:49.713Z,28.75
2018-07-25T14:55:20.427Z,28.47
2018-07-25T14:57:51.152Z,28.61
2018-07-25T15:00:21.924Z,28.86
2018-07-25T15:02:52.678Z,28.93
2018-07-25T15:05:23.328Z,29.36
2018-07-25T15:07:54.143Z,29.05
2018-07-25T15:10:24.910Z,29.69
2018-07-25T15:12:58.069Z,29.31
2018-07-25T15:15:29.042Z,30.21
2018-07-25T15:17:59.717Z,30.79
2018-07-25T15:20:31.329Z,30.76
2018-07-25T15:23:02.035Z,31.41
2018-07-25T15:25:32.744Z,31.58
2018-07-25T15:28:03.450Z,31.82
2018-07-25T15:30:34.137Z,31.12
2018-07-25T15:33:04.923Z,31.46
2018-07-25T15:35:35.651Z,32.02
2018-07-25T15:38:06.545Z,32.02
2018-07-25T15:40:37.290Z,31.72
2018-07-25T15:43:08.251Z,31.57
2018-07-25T15:45:39.062Z,31.98
2018-07-25T15:48:09.812Z,31.58
2018-07-25T15:50:40.503Z,32.37
2018-07-25T15:53:11.207Z,32.24
2018-07-25T15:55:41.912Z,32.67
2018-07-25T15:58:12.973Z,33.34
2018-07-25T16:00:43.794Z,33.05
2018-07-25T16:03:14.550Z,33.58
2018-07-25T16:05:45.262Z,33.25
2018-07-25T16:08:16.043Z,33.70
2018-07-25T16:10:46.783Z,34.32
2018-07-25T16:13:17.574Z,34.26
2018-07-25T16:15:48.229Z,35.31
2018-07-25T16:18:18.999Z,35.45
2018-07-25T16:21:20.436Z,35.64
2018-07-25T16:23:51.130Z,37.02
2018-07-25T16:26:21.855Z,37.25
2018-07-25T16:28:52.525Z,37.60
2018-07-25T16:31:23.206Z,37.79
2018-07-25T16:33:53.922Z,38.12
2018-07-25T16:36:24.639Z,38.19
2018-07-25T16:38:55.334Z,38.07
2018-07-25T16:41:26.059Z,38.61
2018-07-25T16:43:56.742Z,38.33
2018-07-25T16:46:27.446Z,38.79
2018-07-25T16:48:58.158Z,38.48
2018-07-25T16:51:28.807Z,39.21
2018-07-25T16:53:59.523Z,38.55
2018-07-25T16:56:30.252Z,39.04
2018-07-25T16:59:00.926Z,39.36
2018-07-25T17:01:31.601Z,38.92
2018-07-25T17:04:02.263Z,39.73
2018-07-25T17:06:33.014Z,39.54
2018-07-25T17:09:04.084Z,39.99
2018-07-25T17:11:34.811Z,39.73
2018-07-25T17:14:05.603Z,40.35
2018-07-25T17:16:36.292Z,40.39
2018-07-25T17:19:06.974Z,40.97
2018-07-25T17:21:37.709Z,40.96
2018-07-25T17:24:08.386Z,40.90
2018-07-25T17:26:39.083Z,40.48
2018-07-25T17:29:16.613Z,40.80
2018-07-25T17:31:47.323Z,41.29
2018-07-25T17:34:18.046Z,41.41
2018-07-25T17:36:48.708Z,41.22
2018-07-25T17:39:19.393Z,41.34
2018-07-25T17:41:50.142Z,41.45
2018-07-25T17:44:20.897Z,41.16
2018-07-25T17:46:51.635Z,41.37
2018-07-25T17:49:22.259Z,41.41
2018-07-25T17:51:52.979Z,41.50
2018-07-25T17:54:23.682Z,41.25
2018-07-25T17:56:54.384Z,40.87
2018-07-25T17:59:25.070Z,41.04
2018-07-25T18:01:55.889Z,40.80
2018-07-25T18:04:26.614Z,41.30
2018-07-25T18:06:57.539Z,41.81
2018-07-25T18:09:28.260Z,41.23
2018-07-25T18:11:58.988Z,40.58
2018-07-25T18:14:29.652Z,40.30
2018-07-25T18:17:00.343Z,40.53
2018-07-25T18:19:31.094Z,40.14
2018-07-25T18:22:01.911Z,40.49
2018-07-25T18:24:32.609Z,40.63
2018-07-25T18:27:03.341Z,40.31
2018-07-25T18:29:34.013Z,40.66
2018-07-25T18:32:04.763Z,39.06
2018-07-25T18:34:35.471Z,39.42
2018-07-25T18:37:06.161Z,38.92
2018-07-25T18:39:36.852Z,39.37
2018-07-25T18:42:07.695Z,40.10
2018-07-25T18:44:38.403Z,40.11
2018-07-25T18:47:09.124Z,40.35
2018-07-25T18:49:39.807Z,40.37
2018-07-25T18:52:10.489Z,40.48
2018-07-25T18:54:41.186Z,40.53
2018-07-25T18:57:11.888Z,40.10
2018-07-25T18:59:42.554Z,40.01
2018-07-25T19:02:13.370Z,40.39
2018-07-25T19:04:44.015Z,40.08
2018-07-25T19:07:14.721Z,40.44
2018-07-25T19:09:45.545Z,40.54
2018-07-25T19:12:16.200Z,40.98
2018-07-25T19:14:52.095Z,41.60
2018-07-25T19:17:22.787Z,41.76
2018-07-25T19:19:53.462Z,42.76
2018-07-25T19:22:24.153Z,42.90
2018-07-25T19:24:54.873Z,43.51
2018-07-25T19:27:25.546Z,44.07
2018-07-25T19:29:56.252Z,43.92
2018-07-25T19:32:26.919Z,44.44
2018-07-25T19:34:57.734Z,44.99
2018-07-25T19:37:28.367Z,45.26
2018-07-25T19:39:59.094Z,45.53
2018-07-25T19:42:29.731Z,45.69
2018-07-25T19:45:00.452Z,46.44
2018-07-25T19:47:31.080Z,46.38
2018-07-25T19:50:01.784Z,46.71
2018-07-25T19:52:32.448Z,46.83
2018-07-25T19:55:03.163Z,47.12
2018-07-25T19:57:33.821Z,47.34
2018-07-25T20:00:05.080Z,47.28
2018-07-25T20:02:35.451Z,47.75
2018-07-25T20:05:06.430Z,47.74
2018-07-25T20:07:37.173Z,47.65
2018-07-25T20:10:07.923Z,48.31
2018-07-25T20:12:38.585Z,48.03
2018-07-25T20:15:14.553Z,48.43
2018-07-25T20:17:45.258Z,48.29
2018-07-25T20:20:16.014Z,48.94
2018-07-25T20:22:46.714Z,49.04
2018-07-25T20:25:17.404Z,48.95
2018-07-25T20:27:48.090Z,48.97
2018-07-25T20:30:18.786Z,49.14
2018-07-25T20:32:49.485Z,49.45
2018-07-25T20:35:20.125Z,49.21
2018-07-25T20:37:50.805Z,49.81
2018-07-25T20:40:21.576Z,50.13
2018-07-25T20:42:52.744Z,50.03
2018-07-25T20:45:23.553Z,49.87
2018-07-25T20:47:54.263Z,50.07
2018-07-25T20:50:25.035Z,50.34
2018-07-25T20:52:55.680Z,50.14
2018-07-25T20:55:26.386Z,50.89
2018-07-25T20:57:56.785Z,51.01
2018-07-25T21:00:32.476Z,51.19
2018-07-25T21:03:05.270Z,51.53
2018-07-25T21:05:36.391Z,51.28
2018-07-25T21:08:07.128Z,51.42
2018-07-25T21:10:37.891Z,51.52
2018-07-25T21:13:08.542Z,51.55
2018-07-25T21:15:39.191Z,51.73
2018-07-25T21:18:09.861Z,51.89
2018-07-25T21:20:40.512Z,52.67
2018-07-25T21:23:11.180Z,52.82
2018-07-25T21:25:41.848Z,52.37
2018-07-25T21:28:12.676Z,52.73
2018-07-25T21:30:43.375Z,52.58
2018-07-25T21:33:14.004Z,52.75
2018-07-25T21:35:44.655Z,53.23
2018-07-25T21:38:15.984Z,53.37
2018-07-25T21:40:46.683Z,53.09
2018-07-25T21:45:46.001Z,53.75
2018-07-25T21:48:16.657Z,53.85
2018-07-25T21:50:47.293Z,53.77
2018-07-25T21:53:17.919Z,53.76
2018-07-25T21:55:48.556Z,53.95
2018-07-25T21:58:19.210Z,54.01
2018-07-25T22:00:57.166Z,54.12
2018-07-25T22:03:27.968Z,54.64
2018-07-25T22:05:58.643Z,54.69
2018-07-25T22:08:29.307Z,54.85
2018-07-25T22:11:00.012Z,55.06
2018-07-25T22:13:30.656Z,55.15
2018-07-25T22:16:01.632Z,54.99
2018-07-25T22:18:32.299Z,54.81
2018-07-25T22:21:02.984Z,54.91
2018-07-25T22:23:33.626Z,55.24
2018-07-25T22:26:04.355Z,55.53
2018-07-25T22:28:34.982Z,55.07
2018-07-25T22:31:05.733Z,55.16
2018-07-25T22:33:36.380Z,55.37
2018-07-25T22:36:07.898Z,55.18
2018-07-25T22:38:38.533Z,55.43
2018-07-25T22:41:09.232Z,55.78
2018-07-25T22:43:39.866Z,56.16
2018-07-25T22:46:10.597Z,56.20
2018-07-25T22:48:41.259Z,56.45
2018-07-25T22:51:11.569Z,56.39
2018-07-25T22:53:42.079Z,56.87
2018-07-25T22:56:12.709Z,57.13
2018-07-25T22:58:43.325Z,56.79
2018-07-25T23:01:13.959Z,57.30
2018-07-25T23:03:44.603Z,57.51
2018-07-25T23:06:15.251Z,57.35
2018-07-25T23:08:45.957Z,57.79
2018-07-25T23:11:16.595Z,57.40
2018-07-25T23:13:47.931Z,58.14
2018-07-25T23:16:18.602Z,58.66
2018-07-25T23:18:49.328Z,58.62
2018-07-25T23:21:19.975Z,58.63
2018-07-25T23:23:50.664Z,59.23
2018-07-25T23:26:21.295Z,58.72
2018-07-25T23:28:52.007Z,58.96
2018-07-25T23:31:22.663Z,59.26
2018-07-25T23:33:53.331Z,59.34
2018-07-25T23:36:23.964Z,59.34
2018-07-25T23:38:54.698Z,59.67
2018-07-25T23:41:25.358Z,59.93
2018-07-25T23:43:56.023Z,60.25
2018-07-25T23:46:26.707Z,60.10
2018-07-25T23:48:57.393Z,60.08
2018-07-25T23:51:28.059Z,60.20
2018-07-25T23:53:58.765Z,60.68
2018-07-25T23:56:29.429Z,60.55
2018-07-25T23:59:00.120Z,61.01
